sensor_id;sensor_type;location;lat;lon;timestamp;P1;durP1;ratioP1;P2;durP2;ratioP2
23384;SDS011;11865;45.394;10.978;2024-01-11T00:00:42;53.03;;;25.45;;
23384;SDS011;11865;45.394;10.978;2024-01-11T00:03:10;51.72;;;24.23;;
23384;SDS011;11865;45.394;10.978;2024-01-11T00:05:37;53.05;;;24.95;;
23384;SDS011;11865;45.394;10.978;2024-01-11T00:08:05;51.08;;;25.00;;
23384;SDS011;11865;45.394;10.978;2024-01-11T00:10:33;49.45;;;24.90;;
23384;SDS011;11865;45.394;10.978;2024-01-11T00:13:01;50.80;;;25.25;;
23384;SDS011;11865;45.394;10.978;2024-01-11T00:15:28;51.28;;;24.02;;
23384;SDS011;11865;45.394;10.978;2024-01-11T00:17:56;50.80;;;24.92;;
23384;SDS011;11865;45.394;10.978;2024-01-11T00:20:24;51.60;;;25.85;;
23384;SDS011;11865;45.394;10.978;2024-01-11T00:22:52;50.28;;;25.83;;
23384;SDS011;11865;45.394;10.978;2024-01-11T00:25:20;58.80;;;26.65;;
23384;SDS011;11865;45.394;10.978;2024-01-11T00:27:47;52.15;;;25.92;;
23384;SDS011;11865;45.394;10.978;2024-01-11T00:30:15;60.13;;;26.70;;
23384;SDS011;11865;45.394;10.978;2024-01-11T00:32:42;49.13;;;25.05;;
23384;SDS011;11865;45.394;10.978;2024-01-11T00:35:10;52.42;;;25.40;;
23384;SDS011;11865;45.394;10.978;2024-01-11T00:37:38;53.03;;;25.48;;
23384;SDS011;11865;45.394;10.978;2024-01-11T00:40:06;53.45;;;26.60;;
23384;SDS011;11865;45.394;10.978;2024-01-11T00:42:33;55.38;;;26.15;;
23384;SDS011;11865;45.394;10.978;2024-01-11T00:45:01;62.15;;;27.27;;
23384;SDS011;11865;45.394;10.978;2024-01-11T00:47:29;51.97;;;25.55;;
23384;SDS011;11865;45.394;10.978;2024-01-11T00:49:57;54.95;;;25.88;;
23384;SDS011;11865;45.394;10.978;2024-01-11T00:52:25;56.80;;;27.60;;
23384;SDS011;11865;45.394;10.978;2024-01-11T00:54:52;63.13;;;28.08;;
23384;SDS011;11865;45.394;10.978;2024-01-11T00:57:19;60.13;;;26.17;;
23384;SDS011;11865;45.394;10.978;2024-01-11T00:59:48;60.45;;;27.88;;
23384;SDS011;11865;45.394;10.978;2024-01-11T01:02:16;59.65;;;27.83;;
23384;SDS011;11865;45.394;10.978;2024-01-11T01:04:43;61.05;;;26.77;;
23384;SDS011;11865;45.394;10.978;2024-01-11T01:07:11;53.30;;;27.38;;
23384;SDS011;11865;45.394;10.978;2024-01-11T01:09:38;60.00;;;26.15;;
23384;SDS011;11865;45.394;10.978;2024-01-11T01:12:06;50.97;;;25.73;;
23384;SDS011;11865;45.394;10.978;2024-01-11T01:14:33;59.53;;;25.13;;
23384;SDS011;11865;45.394;10.978;2024-01-11T01:17:01;51.72;;;25.77;;
23384;SDS011;11865;45.394;10.978;2024-01-11T01:19:29;56.13;;;25.42;;
23384;SDS011;11865;45.394;10.978;2024-01-11T01:21:56;57.75;;;24.58;;
23384;SDS011;11865;45.394;10.978;2024-01-11T01:24:24;57.95;;;25.77;;
23384;SDS011;11865;45.394;10.978;2024-01-11T01:26:51;50.95;;;24.77;;
23384;SDS011;11865;45.394;10.978;2024-01-11T01:29:19;48.80;;;23.20;;
23384;SDS011;11865;45.394;10.978;2024-01-11T01:31:46;44.92;;;23.40;;
23384;SDS011;11865;45.394;10.978;2024-01-11T01:34:14;45.45;;;22.63;;
23384;SDS011;11865;45.394;10.978;2024-01-11T01:36:41;47.55;;;23.58;;
23384;SDS011;11865;45.394;10.978;2024-01-11T01:39:09;49.75;;;22.50;;
23384;SDS011;11865;45.394;10.978;2024-01-11T01:41:37;47.30;;;23.52;;
23384;SDS011;11865;45.394;10.978;2024-01-11T01:44:04;49.72;;;24.48;;
23384;SDS011;11865;45.394;10.978;2024-01-11T01:46:32;46.55;;;22.85;;
23384;SDS011;11865;45.394;10.978;2024-01-11T01:49:01;45.88;;;23.30;;
23384;SDS011;11865;45.394;10.978;2024-01-11T01:51:30;44.33;;;22.13;;
23384;SDS011;11865;45.394;10.978;2024-01-11T01:53:59;41.88;;;21.40;;
23384;SDS011;11865;45.394;10.978;2024-01-11T01:56:28;50.00;;;22.92;;
23384;SDS011;11865;45.394;10.978;2024-01-11T01:58:56;46.15;;;22.92;;
23384;SDS011;11865;45.394;10.978;2024-01-11T02:01:25;57.97;;;24.85;;
23384;SDS011;11865;45.394;10.978;2024-01-11T02:03:54;39.20;;;22.33;;
23384;SDS011;11865;45.394;10.978;2024-01-11T02:06:22;52.90;;;22.25;;
23384;SDS011;11865;45.394;10.978;2024-01-11T02:08:52;43.13;;;22.10;;
23384;SDS011;11865;45.394;10.978;2024-01-11T02:11:20;52.17;;;22.48;;
23384;SDS011;11865;45.394;10.978;2024-01-11T02:13:50;46.83;;;22.17;;
23384;SDS011;11865;45.394;10.978;2024-01-11T02:16:17;44.85;;;22.85;;
23384;SDS011;11865;45.394;10.978;2024-01-11T02:18:45;43.88;;;21.17;;
23384;SDS011;11865;45.394;10.978;2024-01-11T02:21:14;48.70;;;22.17;;
23384;SDS011;11865;45.394;10.978;2024-01-11T02:23:59;41.60;;;21.63;;
23384;SDS011;11865;45.394;10.978;2024-01-11T02:26:30;46.03;;;21.85;;
23384;SDS011;11865;45.394;10.978;2024-01-11T02:28:58;46.92;;;20.85;;
23384;SDS011;11865;45.394;10.978;2024-01-11T02:31:26;46.20;;;20.25;;
23384;SDS011;11865;45.394;10.978;2024-01-11T02:33:54;42.50;;;20.17;;
23384;SDS011;11865;45.394;10.978;2024-01-11T02:36:22;41.92;;;21.13;;
23384;SDS011;11865;45.394;10.978;2024-01-11T02:38:51;43.30;;;20.38;;
23384;SDS011;11865;45.394;10.978;2024-01-11T02:41:20;37.95;;;19.48;;
23384;SDS011;11865;45.394;10.978;2024-01-11T02:43:48;47.45;;;21.73;;
23384;SDS011;11865;45.394;10.978;2024-01-11T02:46:16;41.42;;;19.35;;
23384;SDS011;11865;45.394;10.978;2024-01-11T02:48:44;39.75;;;20.00;;
23384;SDS011;11865;45.394;10.978;2024-01-11T02:51:12;46.58;;;19.95;;
23384;SDS011;11865;45.394;10.978;2024-01-11T02:53:40;43.30;;;20.17;;
23384;SDS011;11865;45.394;10.978;2024-01-11T02:56:07;44.05;;;20.55;;
23384;SDS011;11865;45.394;10.978;2024-01-11T02:58:35;42.28;;;20.58;;
23384;SDS011;11865;45.394;10.978;2024-01-11T03:01:02;43.85;;;20.80;;
23384;SDS011;11865;45.394;10.978;2024-01-11T03:03:30;40.05;;;19.27;;
23384;SDS011;11865;45.394;10.978;2024-01-11T03:05:58;40.63;;;19.98;;
23384;SDS011;11865;45.394;10.978;2024-01-11T03:08:26;39.78;;;18.65;;
23384;SDS011;11865;45.394;10.978;2024-01-11T03:10:53;40.25;;;21.23;;
23384;SDS011;11865;45.394;10.978;2024-01-11T03:13:21;38.90;;;18.65;;
23384;SDS011;11865;45.394;10.978;2024-01-11T03:15:49;39.42;;;20.35;;
23384;SDS011;11865;45.394;10.978;2024-01-11T03:18:17;44.17;;;18.95;;
23384;SDS011;11865;45.394;10.978;2024-01-11T03:20:44;44.03;;;20.88;;
23384;SDS011;11865;45.394;10.978;2024-01-11T03:23:12;40.72;;;19.20;;
23384;SDS011;11865;45.394;10.978;2024-01-11T03:25:40;37.90;;;18.65;;
23384;SDS011;11865;45.394;10.978;2024-01-11T03:28:07;40.38;;;19.00;;
23384;SDS011;11865;45.394;10.978;2024-01-11T03:30:35;47.13;;;21.00;;
23384;SDS011;11865;45.394;10.978;2024-01-11T03:33:02;39.63;;;19.75;;
23384;SDS011;11865;45.394;10.978;2024-01-11T03:35:30;41.50;;;19.85;;
23384;SDS011;11865;45.394;10.978;2024-01-11T03:37:58;41.10;;;19.35;;
23384;SDS011;11865;45.394;10.978;2024-01-11T03:40:26;45.42;;;19.73;;
23384;SDS011;11865;45.394;10.978;2024-01-11T03:42:53;43.50;;;20.13;;
23384;SDS011;11865;45.394;10.978;2024-01-11T03:45:21;39.25;;;19.90;;
23384;SDS011;11865;45.394;10.978;2024-01-11T03:47:48;43.10;;;19.58;;
23384;SDS011;11865;45.394;10.978;2024-01-11T03:50:16;44.95;;;20.90;;
23384;SDS011;11865;45.394;10.978;2024-01-11T03:52:44;34.72;;;18.10;;
23384;SDS011;11865;45.394;10.978;2024-01-11T03:55:11;41.13;;;19.20;;
23384;SDS011;11865;45.394;10.978;2024-01-11T03:57:39;36.70;;;18.92;;
23384;SDS011;11865;45.394;10.978;2024-01-11T04:00:06;40.28;;;20.20;;
23384;SDS011;11865;45.394;10.978;2024-01-11T04:02:37;33.72;;;14.90;;
23384;SDS011;11865;45.394;10.978;2024-01-11T04:05:05;40.90;;;19.33;;
23384;SDS011;11865;45.394;10.978;2024-01-11T04:07:33;40.95;;;20.40;;
23384;SDS011;11865;45.394;10.978;2024-01-11T04:10:00;43.03;;;20.35;;
23384;SDS011;11865;45.394;10.978;2024-01-11T04:12:28;45.03;;;21.27;;
23384;SDS011;11865;45.394;10.978;2024-01-11T04:14:55;42.97;;;20.83;;
23384;SDS011;11865;45.394;10.978;2024-01-11T04:17:23;42.55;;;19.77;;
23384;SDS011;11865;45.394;10.978;2024-01-11T04:19:51;50.08;;;21.05;;
23384;SDS011;11865;45.394;10.978;2024-01-11T04:22:18;40.25;;;19.38;;
23384;SDS011;11865;45.394;10.978;2024-01-11T04:24:46;43.55;;;20.67;;
23384;SDS011;11865;45.394;10.978;2024-01-11T04:27:14;41.95;;;20.33;;
23384;SDS011;11865;45.394;10.978;2024-01-11T04:29:41;42.20;;;20.77;;
23384;SDS011;11865;45.394;10.978;2024-01-11T04:32:09;41.25;;;19.85;;
23384;SDS011;11865;45.394;10.978;2024-01-11T04:34:36;38.78;;;20.10;;
23384;SDS011;11865;45.394;10.978;2024-01-11T04:37:04;39.33;;;18.73;;
23384;SDS011;11865;45.394;10.978;2024-01-11T04:39:32;45.20;;;21.42;;
23384;SDS011;11865;45.394;10.978;2024-01-11T04:42:00;42.90;;;20.20;;
23384;SDS011;11865;45.394;10.978;2024-01-11T04:44:27;43.03;;;21.20;;
23384;SDS011;11865;45.394;10.978;2024-01-11T04:46:55;43.00;;;22.38;;
23384;SDS011;11865;45.394;10.978;2024-01-11T04:49:23;47.70;;;21.08;;
23384;SDS011;11865;45.394;10.978;2024-01-11T04:51:51;42.28;;;20.00;;
23384;SDS011;11865;45.394;10.978;2024-01-11T04:54:18;44.58;;;20.98;;
23384;SDS011;11865;45.394;10.978;2024-01-11T04:56:46;46.88;;;20.92;;
23384;SDS011;11865;45.394;10.978;2024-01-11T04:59:13;47.45;;;21.52;;
23384;SDS011;11865;45.394;10.978;2024-01-11T05:01:41;40.75;;;19.77;;
23384;SDS011;11865;45.394;10.978;2024-01-11T05:04:09;46.38;;;21.83;;
23384;SDS011;11865;45.394;10.978;2024-01-11T05:06:36;45.05;;;21.85;;
23384;SDS011;11865;45.394;10.978;2024-01-11T05:09:04;43.30;;;20.17;;
23384;SDS011;11865;45.394;10.978;2024-01-11T05:11:31;45.17;;;22.42;;
23384;SDS011;11865;45.394;10.978;2024-01-11T05:13:59;40.80;;;20.00;;
23384;SDS011;11865;45.394;10.978;2024-01-11T05:16:27;46.50;;;20.63;;
23384;SDS011;11865;45.394;10.978;2024-01-11T05:18:56;43.25;;;20.40;;
23384;SDS011;11865;45.394;10.978;2024-01-11T05:21:25;44.83;;;21.67;;
23384;SDS011;11865;45.394;10.978;2024-01-11T05:23:53;43.25;;;20.98;;
23384;SDS011;11865;45.394;10.978;2024-01-11T05:26:21;37.45;;;19.48;;
23384;SDS011;11865;45.394;10.978;2024-01-11T05:28:48;45.03;;;21.08;;
23384;SDS011;11865;45.394;10.978;2024-01-11T05:31:16;41.40;;;20.73;;
23384;SDS011;11865;45.394;10.978;2024-01-11T05:33:44;47.13;;;22.27;;
23384;SDS011;11865;45.394;10.978;2024-01-11T05:36:14;49.60;;;20.00;;
23384;SDS011;11865;45.394;10.978;2024-01-11T05:38:41;50.92;;;21.42;;
23384;SDS011;11865;45.394;10.978;2024-01-11T05:41:09;48.13;;;21.23;;
23384;SDS011;11865;45.394;10.978;2024-01-11T05:43:37;42.60;;;20.60;;
23384;SDS011;11865;45.394;10.978;2024-01-11T05:46:06;41.42;;;19.85;;
23384;SDS011;11865;45.394;10.978;2024-01-11T05:48:34;40.70;;;19.60;;
23384;SDS011;11865;45.394;10.978;2024-01-11T05:51:02;42.60;;;18.75;;
23384;SDS011;11865;45.394;10.978;2024-01-11T05:53:30;40.70;;;18.70;;
23384;SDS011;11865;45.394;10.978;2024-01-11T05:56:00;53.28;;;21.75;;
23384;SDS011;11865;45.394;10.978;2024-01-11T05:58:30;48.30;;;20.88;;
23384;SDS011;11865;45.394;10.978;2024-01-11T06:00:57;45.60;;;21.45;;
23384;SDS011;11865;45.394;10.978;2024-01-11T06:03:25;43.53;;;20.58;;
23384;SDS011;11865;45.394;10.978;2024-01-11T06:05:53;42.20;;;19.85;;
23384;SDS011;11865;45.394;10.978;2024-01-11T06:08:20;48.53;;;19.45;;
23384;SDS011;11865;45.394;10.978;2024-01-11T06:10:48;55.20;;;21.10;;
23384;SDS011;11865;45.394;10.978;2024-01-11T06:13:16;49.13;;;21.15;;
23384;SDS011;11865;45.394;10.978;2024-01-11T06:15:43;50.42;;;22.13;;
23384;SDS011;11865;45.394;10.978;2024-01-11T06:18:11;54.83;;;21.33;;
23384;SDS011;11865;45.394;10.978;2024-01-11T06:20:39;46.85;;;23.20;;
23384;SDS011;11865;45.394;10.978;2024-01-11T06:23:06;49.65;;;22.08;;
23384;SDS011;11865;45.394;10.978;2024-01-11T06:25:34;46.72;;;21.08;;
23384;SDS011;11865;45.394;10.978;2024-01-11T06:28:03;52.95;;;22.05;;
23384;SDS011;11865;45.394;10.978;2024-01-11T06:30:33;49.17;;;21.02;;
23384;SDS011;11865;45.394;10.978;2024-01-11T06:33:01;49.88;;;19.70;;
23384;SDS011;11865;45.394;10.978;2024-01-11T06:35:29;48.13;;;19.40;;
23384;SDS011;11865;45.394;10.978;2024-01-11T06:37:56;55.63;;;21.40;;
23384;SDS011;11865;45.394;10.978;2024-01-11T06:40:24;46.40;;;18.33;;
23384;SDS011;11865;45.394;10.978;2024-01-11T06:42:52;51.50;;;20.45;;
23384;SDS011;11865;45.394;10.978;2024-01-11T06:45:20;42.90;;;20.98;;
23384;SDS011;11865;45.394;10.978;2024-01-11T06:47:47;50.22;;;20.60;;
23384;SDS011;11865;45.394;10.978;2024-01-11T06:50:16;52.15;;;21.40;;
23384;SDS011;11865;45.394;10.978;2024-01-11T06:52:44;50.10;;;21.67;;
23384;SDS011;11865;45.394;10.978;2024-01-11T06:55:12;46.10;;;20.38;;
23384;SDS011;11865;45.394;10.978;2024-01-11T06:57:39;47.95;;;21.42;;
23384;SDS011;11865;45.394;10.978;2024-01-11T07:00:07;48.95;;;21.95;;
23384;SDS011;11865;45.394;10.978;2024-01-11T07:02:35;49.80;;;21.88;;
23384;SDS011;11865;45.394;10.978;2024-01-11T07:05:03;49.58;;;21.10;;
23384;SDS011;11865;45.394;10.978;2024-01-11T07:07:31;45.75;;;20.85;;
23384;SDS011;11865;45.394;10.978;2024-01-11T07:09:59;57.05;;;21.33;;
23384;SDS011;11865;45.394;10.978;2024-01-11T07:12:27;51.15;;;21.05;;
23384;SDS011;11865;45.394;10.978;2024-01-11T07:14:54;50.20;;;21.15;;
23384;SDS011;11865;45.394;10.978;2024-01-11T07:17:22;48.47;;;20.25;;
23384;SDS011;11865;45.394;10.978;2024-01-11T07:19:50;55.53;;;21.98;;
23384;SDS011;11865;45.394;10.978;2024-01-11T07:22:18;55.03;;;20.98;;
23384;SDS011;11865;45.394;10.978;2024-01-11T07:24:45;46.33;;;21.52;;
23384;SDS011;11865;45.394;10.978;2024-01-11T07:27:13;57.47;;;22.33;;
23384;SDS011;11865;45.394;10.978;2024-01-11T07:29:41;45.17;;;20.77;;
23384;SDS011;11865;45.394;10.978;2024-01-11T07:32:09;54.58;;;22.00;;
23384;SDS011;11865;45.394;10.978;2024-01-11T07:34:36;56.03;;;22.13;;
23384;SDS011;11865;45.394;10.978;2024-01-11T07:37:04;45.75;;;22.25;;
23384;SDS011;11865;45.394;10.978;2024-01-11T07:39:32;54.05;;;20.90;;
23384;SDS011;11865;45.394;10.978;2024-01-11T07:41:59;52.50;;;22.40;;
23384;SDS011;11865;45.394;10.978;2024-01-11T07:44:27;56.67;;;22.83;;
23384;SDS011;11865;45.394;10.978;2024-01-11T07:46:54;45.60;;;21.35;;
23384;SDS011;11865;45.394;10.978;2024-01-11T07:49:27;50.03;;;22.38;;
23384;SDS011;11865;45.394;10.978;2024-01-11T07:51:55;59.88;;;22.50;;
23384;SDS011;11865;45.394;10.978;2024-01-11T07:54:23;55.13;;;24.73;;
23384;SDS011;11865;45.394;10.978;2024-01-11T07:56:51;57.65;;;24.80;;
23384;SDS011;11865;45.394;10.978;2024-01-11T07:59:19;55.08;;;24.30;;
23384;SDS011;11865;45.394;10.978;2024-01-11T08:01:46;55.90;;;24.50;;
23384;SDS011;11865;45.394;10.978;2024-01-11T08:04:15;57.72;;;24.33;;
23384;SDS011;11865;45.394;10.978;2024-01-11T08:06:42;61.53;;;24.08;;
23384;SDS011;11865;45.394;10.978;2024-01-11T08:09:10;47.30;;;23.55;;
23384;SDS011;11865;45.394;10.978;2024-01-11T08:11:40;57.60;;;24.00;;
23384;SDS011;11865;45.394;10.978;2024-01-11T08:14:17;59.67;;;26.08;;
23384;SDS011;11865;45.394;10.978;2024-01-11T08:16:45;58.47;;;23.63;;
23384;SDS011;11865;45.394;10.978;2024-01-11T08:19:12;58.83;;;25.20;;
23384;SDS011;11865;45.394;10.978;2024-01-11T08:21:41;56.03;;;25.65;;
23384;SDS011;11865;45.394;10.978;2024-01-11T08:24:09;57.88;;;25.52;;
23384;SDS011;11865;45.394;10.978;2024-01-11T08:26:36;57.25;;;25.27;;
23384;SDS011;11865;45.394;10.978;2024-01-11T08:29:04;59.42;;;25.20;;
23384;SDS011;11865;45.394;10.978;2024-01-11T08:31:33;60.72;;;25.73;;
23384;SDS011;11865;45.394;10.978;2024-01-11T08:34:04;56.03;;;24.08;;
23384;SDS011;11865;45.394;10.978;2024-01-11T08:36:32;58.72;;;25.88;;
23384;SDS011;11865;45.394;10.978;2024-01-11T08:39:02;54.28;;;23.98;;
23384;SDS011;11865;45.394;10.978;2024-01-11T08:41:33;52.53;;;25.98;;
23384;SDS011;11865;45.394;10.978;2024-01-11T08:44:02;52.13;;;26.10;;
23384;SDS011;11865;45.394;10.978;2024-01-11T08:46:30;52.45;;;25.17;;
23384;SDS011;11865;45.394;10.978;2024-01-11T08:48:58;55.30;;;26.00;;
23384;SDS011;11865;45.394;10.978;2024-01-11T08:51:25;55.50;;;25.25;;
23384;SDS011;11865;45.394;10.978;2024-01-11T08:53:53;49.00;;;23.88;;
23384;SDS011;11865;45.394;10.978;2024-01-11T08:56:21;53.90;;;25.42;;
23384;SDS011;11865;45.394;10.978;2024-01-11T08:58:49;55.05;;;26.35;;
23384;SDS011;11865;45.394;10.978;2024-01-11T09:01:16;58.63;;;25.30;;
23384;SDS011;11865;45.394;10.978;2024-01-11T09:03:45;56.42;;;26.20;;
23384;SDS011;11865;45.394;10.978;2024-01-11T09:06:15;55.15;;;26.52;;
23384;SDS011;11865;45.394;10.978;2024-01-11T09:08:43;66.05;;;26.17;;
23384;SDS011;11865;45.394;10.978;2024-01-11T09:11:11;58.55;;;26.77;;
23384;SDS011;11865;45.394;10.978;2024-01-11T09:13:38;60.72;;;27.73;;
23384;SDS011;11865;45.394;10.978;2024-01-11T09:16:07;58.58;;;26.48;;
23384;SDS011;11865;45.394;10.978;2024-01-11T09:18:36;55.25;;;25.58;;
23384;SDS011;11865;45.394;10.978;2024-01-11T09:21:04;46.03;;;23.73;;
23384;SDS011;11865;45.394;10.978;2024-01-11T09:23:31;50.47;;;24.45;;
23384;SDS011;11865;45.394;10.978;2024-01-11T09:25:58;55.55;;;25.63;;
23384;SDS011;11865;45.394;10.978;2024-01-11T09:28:26;46.40;;;24.67;;
23384;SDS011;11865;45.394;10.978;2024-01-11T09:30:54;48.47;;;25.77;;
23384;SDS011;11865;45.394;10.978;2024-01-11T09:33:27;52.30;;;25.42;;
23384;SDS011;11865;45.394;10.978;2024-01-11T09:35:55;59.60;;;26.08;;
23384;SDS011;11865;45.394;10.978;2024-01-11T09:38:23;51.38;;;24.65;;
23384;SDS011;11865;45.394;10.978;2024-01-11T09:40:54;52.95;;;24.63;;
23384;SDS011;11865;45.394;10.978;2024-01-11T09:43:35;57.03;;;26.40;;
23384;SDS011;11865;45.394;10.978;2024-01-11T09:46:04;57.33;;;27.50;;
23384;SDS011;11865;45.394;10.978;2024-01-11T09:48:33;53.20;;;27.15;;
23384;SDS011;11865;45.394;10.978;2024-01-11T09:51:02;51.20;;;25.95;;
23384;SDS011;11865;45.394;10.978;2024-01-11T09:53:33;56.22;;;26.92;;
23384;SDS011;11865;45.394;10.978;2024-01-11T09:56:03;55.90;;;27.27;;
23384;SDS011;11865;45.394;10.978;2024-01-11T09:58:37;55.00;;;27.13;;
23384;SDS011;11865;45.394;10.978;2024-01-11T10:01:12;56.17;;;27.35;;
23384;SDS011;11865;45.394;10.978;2024-01-11T10:03:40;59.08;;;27.63;;
23384;SDS011;11865;45.394;10.978;2024-01-11T10:06:08;48.83;;;26.20;;
23384;SDS011;11865;45.394;10.978;2024-01-11T10:08:37;51.60;;;26.08;;
23384;SDS011;11865;45.394;10.978;2024-01-11T10:11:05;53.35;;;24.77;;
23384;SDS011;11865;45.394;10.978;2024-01-11T10:13:33;48.78;;;24.88;;
23384;SDS011;11865;45.394;10.978;2024-01-11T10:16:06;51.25;;;24.55;;
23384;SDS011;11865;45.394;10.978;2024-01-11T10:18:41;51.60;;;24.95;;
23384;SDS011;11865;45.394;10.978;2024-01-11T10:21:09;52.60;;;24.27;;
23384;SDS011;11865;45.394;10.978;2024-01-11T10:23:37;50.10;;;25.33;;
23384;SDS011;11865;45.394;10.978;2024-01-11T10:26:06;49.78;;;23.00;;
23384;SDS011;11865;45.394;10.978;2024-01-11T10:28:34;45.22;;;23.10;;
23384;SDS011;11865;45.394;10.978;2024-01-11T10:31:04;43.72;;;23.33;;
23384;SDS011;11865;45.394;10.978;2024-01-11T10:33:34;49.85;;;24.45;;
23384;SDS011;11865;45.394;10.978;2024-01-11T10:36:03;48.55;;;24.50;;
23384;SDS011;11865;45.394;10.978;2024-01-11T10:38:31;49.15;;;23.95;;
23384;SDS011;11865;45.394;10.978;2024-01-11T10:41:04;53.35;;;25.10;;
23384;SDS011;11865;45.394;10.978;2024-01-11T10:43:37;50.58;;;23.92;;
23384;SDS011;11865;45.394;10.978;2024-01-11T10:46:05;60.08;;;24.35;;
23384;SDS011;11865;45.394;10.978;2024-01-11T10:48:38;45.60;;;24.63;;
23384;SDS011;11865;45.394;10.978;2024-01-11T10:51:08;48.17;;;24.00;;
23384;SDS011;11865;45.394;10.978;2024-01-11T10:53:43;47.55;;;23.45;;
23384;SDS011;11865;45.394;10.978;2024-01-11T10:56:16;51.58;;;24.55;;
23384;SDS011;11865;45.394;10.978;2024-01-11T10:58:44;43.90;;;22.20;;
23384;SDS011;11865;45.394;10.978;2024-01-11T11:01:14;52.13;;;23.70;;
23384;SDS011;11865;45.394;10.978;2024-01-11T11:03:43;45.63;;;22.65;;
23384;SDS011;11865;45.394;10.978;2024-01-11T11:06:13;42.42;;;21.23;;
23384;SDS011;11865;45.394;10.978;2024-01-11T11:08:41;46.65;;;23.15;;
23384;SDS011;11865;45.394;10.978;2024-01-11T11:11:10;46.15;;;24.15;;
23384;SDS011;11865;45.394;10.978;2024-01-11T11:13:38;45.67;;;24.38;;
23384;SDS011;11865;45.394;10.978;2024-01-11T11:16:07;46.17;;;23.27;;
23384;SDS011;11865;45.394;10.978;2024-01-11T11:18:35;45.33;;;24.13;;
23384;SDS011;11865;45.394;10.978;2024-01-11T11:21:08;42.65;;;23.23;;
23384;SDS011;11865;45.394;10.978;2024-01-11T11:23:38;39.30;;;22.17;;
23384;SDS011;11865;45.394;10.978;2024-01-11T11:26:06;43.53;;;22.15;;
23384;SDS011;11865;45.394;10.978;2024-01-11T11:28:40;39.30;;;22.10;;
23384;SDS011;11865;45.394;10.978;2024-01-11T11:31:08;39.17;;;22.52;;
23384;SDS011;11865;45.394;10.978;2024-01-11T11:33:38;42.67;;;22.25;;
23384;SDS011;11865;45.394;10.978;2024-01-11T11:36:09;41.00;;;22.65;;
23384;SDS011;11865;45.394;10.978;2024-01-11T11:38:40;41.00;;;22.10;;
23384;SDS011;11865;45.394;10.978;2024-01-11T11:41:08;45.20;;;23.25;;
23384;SDS011;11865;45.394;10.978;2024-01-11T11:43:37;47.30;;;24.98;;
23384;SDS011;11865;45.394;10.978;2024-01-11T11:46:07;46.63;;;24.85;;
23384;SDS011;11865;45.394;10.978;2024-01-11T11:48:48;41.88;;;24.05;;
23384;SDS011;11865;45.394;10.978;2024-01-11T11:51:18;44.15;;;24.10;;
23384;SDS011;11865;45.394;10.978;2024-01-11T11:53:49;48.80;;;25.42;;
23384;SDS011;11865;45.394;10.978;2024-01-11T11:56:19;41.55;;;23.33;;
23384;SDS011;11865;45.394;10.978;2024-01-11T11:58:48;49.80;;;23.63;;
23384;SDS011;11865;45.394;10.978;2024-01-11T12:01:21;45.50;;;25.48;;
23384;SDS011;11865;45.394;10.978;2024-01-11T12:03:49;40.13;;;23.98;;
23384;SDS011;11865;45.394;10.978;2024-01-11T12:06:18;49.30;;;23.73;;
23384;SDS011;11865;45.394;10.978;2024-01-11T12:08:47;51.83;;;23.95;;
23384;SDS011;11865;45.394;10.978;2024-01-11T12:11:19;47.40;;;23.25;;
23384;SDS011;11865;45.394;10.978;2024-01-11T12:13:48;45.00;;;22.65;;
23384;SDS011;11865;45.394;10.978;2024-01-11T12:16:17;38.05;;;22.40;;
23384;SDS011;11865;45.394;10.978;2024-01-11T12:18:45;37.90;;;21.48;;
23384;SDS011;11865;45.394;10.978;2024-01-11T12:21:12;35.40;;;21.42;;
23384;SDS011;11865;45.394;10.978;2024-01-11T12:23:43;38.13;;;21.40;;
23384;SDS011;11865;45.394;10.978;2024-01-11T12:26:10;35.75;;;19.33;;
23384;SDS011;11865;45.394;10.978;2024-01-11T12:28:41;37.55;;;19.38;;
23384;SDS011;11865;45.394;10.978;2024-01-11T12:31:11;34.63;;;20.27;;
23384;SDS011;11865;45.394;10.978;2024-01-11T12:33:40;37.53;;;19.88;;
23384;SDS011;11865;45.394;10.978;2024-01-11T12:36:09;33.90;;;18.67;;
23384;SDS011;11865;45.394;10.978;2024-01-11T12:38:37;32.17;;;17.98;;
23384;SDS011;11865;45.394;10.978;2024-01-11T12:41:15;29.48;;;18.15;;
23384;SDS011;11865;45.394;10.978;2024-01-11T12:43:43;32.17;;;17.17;;
23384;SDS011;11865;45.394;10.978;2024-01-11T12:46:11;27.73;;;16.13;;
23384;SDS011;11865;45.394;10.978;2024-01-11T12:48:39;27.00;;;16.55;;
23384;SDS011;11865;45.394;10.978;2024-01-11T12:51:07;30.40;;;15.23;;
23384;SDS011;11865;45.394;10.978;2024-01-11T12:53:46;32.38;;;16.77;;
23384;SDS011;11865;45.394;10.978;2024-01-11T12:56:18;30.20;;;16.52;;
23384;SDS011;11865;45.394;10.978;2024-01-11T12:58:49;31.98;;;17.88;;
23384;SDS011;11865;45.394;10.978;2024-01-11T13:01:17;41.97;;;21.80;;
23384;SDS011;11865;45.394;10.978;2024-01-11T13:03:46;33.90;;;19.38;;
23384;SDS011;11865;45.394;10.978;2024-01-11T13:06:14;44.42;;;22.38;;
23384;SDS011;11865;45.394;10.978;2024-01-11T13:08:44;38.88;;;20.67;;
23384;SDS011;11865;45.394;10.978;2024-01-11T13:11:11;35.72;;;20.55;;
23384;SDS011;11865;45.394;10.978;2024-01-11T13:13:41;36.20;;;20.10;;
23384;SDS011;11865;45.394;10.978;2024-01-11T13:16:09;36.75;;;19.20;;
23384;SDS011;11865;45.394;10.978;2024-01-11T13:18:39;34.28;;;17.85;;
23384;SDS011;11865;45.394;10.978;2024-01-11T13:21:07;38.08;;;21.67;;
23384;SDS011;11865;45.394;10.978;2024-01-11T13:23:35;38.33;;;22.48;;
23384;SDS011;11865;45.394;10.978;2024-01-11T13:26:05;37.22;;;22.30;;
23384;SDS011;11865;45.394;10.978;2024-01-11T13:28:34;39.47;;;22.90;;
23384;SDS011;11865;45.394;10.978;2024-01-11T13:31:01;38.90;;;22.73;;
23384;SDS011;11865;45.394;10.978;2024-01-11T13:33:29;37.65;;;21.65;;
23384;SDS011;11865;45.394;10.978;2024-01-11T13:35:57;39.20;;;21.05;;
23384;SDS011;11865;45.394;10.978;2024-01-11T13:38:26;35.70;;;20.75;;
23384;SDS011;11865;45.394;10.978;2024-01-11T13:40:53;36.22;;;20.77;;
23384;SDS011;11865;45.394;10.978;2024-01-11T13:43:21;47.90;;;24.02;;
23384;SDS011;11865;45.394;10.978;2024-01-11T13:45:48;45.92;;;24.40;;
23384;SDS011;11865;45.394;10.978;2024-01-11T13:48:16;43.20;;;23.20;;
23384;SDS011;11865;45.394;10.978;2024-01-11T13:50:44;36.85;;;21.30;;
23384;SDS011;11865;45.394;10.978;2024-01-11T13:53:12;39.05;;;21.88;;
23384;SDS011;11865;45.394;10.978;2024-01-11T13:55:40;42.03;;;23.15;;
23384;SDS011;11865;45.394;10.978;2024-01-11T13:58:08;45.35;;;24.08;;
23384;SDS011;11865;45.394;10.978;2024-01-11T14:00:35;49.42;;;25.77;;
23384;SDS011;11865;45.394;10.978;2024-01-11T14:03:04;47.10;;;26.80;;
23384;SDS011;11865;45.394;10.978;2024-01-11T14:05:33;40.83;;;24.98;;
23384;SDS011;11865;45.394;10.978;2024-01-11T14:08:01;46.33;;;24.83;;
23384;SDS011;11865;45.394;10.978;2024-01-11T14:13:01;47.13;;;25.50;;
23384;SDS011;11865;45.394;10.978;2024-01-11T14:15:29;48.33;;;26.20;;
23384;SDS011;11865;45.394;10.978;2024-01-11T14:17:57;33.50;;;19.73;;